Station Historical Data
Daily Summary for February 11, 2017 Units:  English    Metric   Both
Next Day »
Daily Weekly Monthly Yearly Custom
  High: Low: Average:
Temperature: 53.9 °F 37.2 °F 44.7 °F
Dew Point: 45.3 °F 35.1 °F 38.9 °F
Humidity: 96% 55% 81%
Wind Speed: 19.0mph 0.0mph 1.5mph
Wind Gust: 24.0mph - -
Wind- - ESE
Pressure: 30.29 in 30.13 in -
Precipitation: 0.02 in    
Historical Graphs
 
 
Tabular Data for February 11, 2017
Time Temperature Dew Point Pressure Wind Wind Speed Wind Gust Humidity Rainfall Rate (Hourly) solar Conditions
00:03 42.8 °F 41.5 °F 30.13 in Calm   1.0 mph 95% 0.05 in 0.00 W/m2
00:08 42.8 °F 41.5 °F 30.13 in Calm     95% 0.05 in 0.00 W/m2
00:13 42.7 °F 41.6 °F 30.13 in Calm     96% 0.04 in 0.00 W/m2
00:18 42.6 °F 41.5 °F 30.14 in Calm   1.0 mph 96% 0.00 in 0.00 W/m2
00:23 42.5 °F 41.4 °F 30.14 in Calm   1.0 mph 96% 0.00 in 0.00 W/m2
00:28 42.4 °F 41.3 °F 30.14 in Calm     96% 0.00 in 0.00 W/m2
00:33 42.3 °F 41.2 °F 30.14 in Calm     96% 0.00 in 0.00 W/m2
00:38 42.2 °F 41.1 °F 30.14 in SE 1.0 mph 1.0 mph 96% 0.00 in 0.00 W/m2
00:43 42.2 °F 41.1 °F 30.14 in Calm   1.0 mph 96% 0.00 in 0.00 W/m2
00:48 42.1 °F 41.0 °F 30.14 in Calm   1.0 mph 96% 0.00 in 0.00 W/m2
00:53 42.0 °F 40.9 °F 30.14 in Calm     96% 0.00 in 0.00 W/m2
00:58 42.0 °F 40.9 °F 30.14 in Calm   1.0 mph 96% 0.00 in 0.00 W/m2
01:03 42.0 °F 40.9 °F 30.14 in Calm   1.0 mph 96% 0.00 in 0.00 W/m2
01:08 42.0 °F 40.9 °F 30.14 in ESE 1.0 mph 1.0 mph 96% 0.00 in 0.00 W/m2
01:13 41.9 °F 40.8 °F 30.14 in ESE 1.0 mph 1.0 mph 96% 0.00 in 0.00 W/m2
01:18 41.9 °F 40.8 °F 30.14 in Calm   1.0 mph 96% 0.00 in 0.00 W/m2
01:23 41.9 °F 40.8 °F 30.14 in Calm   1.0 mph 96% 0.00 in 0.00 W/m2
01:28 41.8 °F 40.8 °F 30.14 in Calm     96% 0.00 in 0.00 W/m2
01:33 41.9 °F 40.8 °F 30.13 in ESE 1.0 mph 1.0 mph 96% 0.00 in 0.00 W/m2
01:38 41.8 °F 40.5 °F 30.13 in Calm   1.0 mph 95% 0.00 in 0.00 W/m2
01:43 41.7 °F 40.4 °F 30.13 in ESE 4.0 mph 11.0 mph 95% 0.00 in 0.00 W/m2
01:48 41.6 °F 40.3 °F 30.13 in Calm   1.0 mph 95% 0.00 in 0.00 W/m2
01:53 41.5 °F 40.2 °F 30.13 in Calm   1.0 mph 95% 0.00 in 0.00 W/m2
01:58 41.4 °F 40.3 °F 30.13 in Calm   1.0 mph 96% 0.00 in 0.00 W/m2
02:03 41.3 °F 40.2 °F 30.14 in Calm     96% 0.00 in 0.00 W/m2
02:08 41.2 °F 40.2 °F 30.13 in Calm   1.0 mph 96% 0.00 in 0.00 W/m2
02:13 41.1 °F 39.8 °F 30.13 in Calm   1.0 mph 95% 0.00 in 0.00 W/m2
02:18 40.9 °F 39.6 °F 30.13 in Calm   1.0 mph 95% 0.00 in 0.00 W/m2
02:23 40.8 °F 39.8 °F 30.14 in Calm   1.0 mph 96% 0.00 in 0.00 W/m2
02:28 40.7 °F 39.7 °F 30.14 in Calm     96% 0.00 in 0.00 W/m2
02:33 40.6 °F 39.5 °F 30.14 in Calm   1.0 mph 96% 0.00 in 0.00 W/m2
02:38 40.5 °F 39.2 °F 30.14 in Calm   1.0 mph 95% 0.00 in 0.00 W/m2
02:43 40.4 °F 39.1 °F 30.14 in Calm   1.0 mph 95% 0.00 in 0.00 W/m2
02:48 40.3 °F 39.0 °F 30.14 in Calm   1.0 mph 95% 0.00 in 0.00 W/m2
02:53 40.3 °F 39.0 °F 30.14 in Calm   1.0 mph 95% 0.00 in 0.00 W/m2
02:58 40.3 °F 39.0 °F 30.14 in Calm   1.0 mph 95% 0.00 in 0.00 W/m2
03:03 40.3 °F 39.0 °F 30.15 in Calm   1.0 mph 95% 0.00 in 0.00 W/m2
03:08 40.3 °F 39.0 °F 30.15 in Calm   1.0 mph 95% 0.00 in 0.00 W/m2
03:13 40.3 °F 39.0 °F 30.15 in Calm   1.0 mph 95% 0.00 in 0.00 W/m2
03:18 40.3 °F 39.0 °F 30.15 in Calm   1.0 mph 95% 0.00 in 0.00 W/m2
03:23 40.2 °F 38.9 °F 30.15 in Calm     95% 0.00 in 0.00 W/m2
03:28 40.2 °F 38.9 °F 30.15 in Calm     95% 0.00 in 0.00 W/m2
03:33 40.1 °F 38.8 °F 30.15 in Calm     95% 0.00 in 0.00 W/m2
03:39 40.0 °F 38.7 °F 30.15 in Calm     95% 0.00 in 0.00 W/m2
03:43 39.9 °F 38.6 °F 30.15 in Calm     95% 0.00 in 0.00 W/m2
03:49 39.9 °F 38.6 °F 30.15 in Calm     95% 0.00 in 0.00 W/m2
03:54 39.9 °F 38.6 °F 30.15 in Calm     95% 0.00 in 0.00 W/m2
03:59 39.9 °F 38.6 °F 30.15 in Calm     95% 0.00 in 0.00 W/m2
04:04 39.9 °F 38.6 °F 30.15 in Calm     95% 0.00 in 0.00 W/m2
04:09 39.9 °F 38.6 °F 30.15 in Calm     95% 0.00 in 0.00 W/m2
04:14 39.8 °F 38.5 °F 30.15 in Calm     95% 0.00 in 0.00 W/m2
04:19 39.7 °F 38.4 °F 30.15 in Calm     95% 0.00 in 0.00 W/m2
04:24 39.6 °F 38.3 °F 30.15 in Calm     95% 0.00 in 0.00 W/m2
04:29 39.5 °F 38.2 °F 30.15 in Calm     95% 0.00 in 0.00 W/m2
04:34 39.3 °F 38.0 °F 30.15 in Calm     95% 0.00 in 0.00 W/m2
04:39 39.2 °F 37.9 °F 30.15 in Calm     95% 0.00 in 0.00 W/m2
04:44 39.0 °F 37.7 °F 30.15 in Calm     95% 0.00 in 0.00 W/m2
04:49 38.9 °F 37.6 °F 30.16 in Calm     95% 0.00 in 0.00 W/m2
04:54 38.9 °F 37.6 °F 30.16 in Calm     95% 0.00 in 0.00 W/m2
04:59 38.8 °F 37.5 °F 30.16 in Calm     95% 0.00 in 0.00 W/m2
05:04 38.8 °F 37.5 °F 30.16 in Calm     95% 0.00 in 0.00 W/m2
05:09 38.8 °F 37.5 °F 30.16 in Calm     95% 0.00 in 0.00 W/m2
05:14 38.7 °F 37.4 °F 30.16 in Calm     95% 0.00 in 0.00 W/m2
05:19 38.7 °F 37.4 °F 30.16 in Calm     95% 0.00 in 0.00 W/m2
05:24 38.8 °F 37.5 °F 30.16 in Calm     95% 0.00 in 0.00 W/m2
05:29 38.9 °F 37.6 °F 30.17 in Calm     95% 0.00 in 0.00 W/m2
05:34 38.9 °F 37.6 °F 30.17 in Calm     95% 0.00 in 0.00 W/m2
05:39 39.0 °F 37.7 °F 30.17 in Calm     95% 0.00 in 0.00 W/m2
05:44 39.0 °F 37.7 °F 30.17 in Calm     95% 0.00 in 0.00 W/m2
05:49 39.1 °F 37.8 °F 30.17 in Calm     95% 0.00 in 0.00 W/m2
05:54 39.1 °F 37.8 °F 30.18 in Calm     95% 0.00 in 0.00 W/m2
05:59 39.1 °F 37.8 °F 30.18 in NE 1.0 mph 1.0 mph 95% 0.00 in 0.00 W/m2
06:04 39.1 °F 37.8 °F 30.19 in NNE 1.0 mph 2.0 mph 95% 0.00 in 0.00 W/m2
06:09 39.0 °F 37.7 °F 30.19 in Calm   1.0 mph 95% 0.00 in 0.00 W/m2
06:14 39.0 °F 37.7 °F 30.18 in Calm   1.0 mph 95% 0.00 in 0.00 W/m2
06:19 38.9 °F 37.6 °F 30.18 in Calm     95% 0.00 in 0.00 W/m2
06:24 38.9 °F 37.6 °F 30.19 in Calm   1.0 mph 95% 0.00 in 0.00 W/m2
06:29 38.8 °F 37.5 °F 30.18 in Calm   1.0 mph 95% 0.00 in 0.00 W/m2
06:34 38.6 °F 37.3 °F 30.19 in Calm   1.0 mph 95% 0.00 in 0.00 W/m2
06:39 38.5 °F 37.2 °F 30.19 in Calm   1.0 mph 95% 0.00 in 0.00 W/m2
06:44 38.4 °F 37.1 °F 30.19 in Calm     95% 0.00 in 0.00 W/m2
06:49 38.3 °F 37.0 °F 30.19 in Calm     95% 0.00 in 0.00 W/m2
06:54 38.1 °F 36.8 °F 30.19 in Calm     95% 0.00 in 0.00 W/m2
06:59 37.9 °F 36.6 °F 30.20 in Calm     95% 0.00 in 5.00 W/m2
07:04 37.7 °F 36.4 °F 30.19 in Calm     95% 0.00 in 7.00 W/m2
07:09 37.5 °F 36.2 °F 30.19 in Calm     95% 0.00 in 11.00 W/m2
07:14 37.4 °F 36.1 °F 30.19 in Calm     95% 0.00 in 14.00 W/m2
07:19 37.3 °F 36.0 °F 30.20 in Calm     95% 0.00 in 16.00 W/m2
07:24 37.3 °F 36.0 °F 30.20 in Calm     95% 0.00 in 23.00 W/m2
07:29 37.2 °F 35.9 °F 30.20 in Calm     95% 0.00 in 35.00 W/m2
07:35 37.2 °F 35.9 °F 30.20 in Calm     95% 0.00 in 47.00 W/m2
07:40 37.2 °F 35.9 °F 30.20 in Calm     95% 0.00 in 63.00 W/m2
07:45 37.2 °F 35.9 °F 30.20 in Calm     95% 0.00 in 79.00 W/m2
07:50 37.3 °F 36.0 °F 30.20 in North 2.0 mph 3.0 mph 95% 0.00 in 97.00 W/m2
07:55 37.3 °F 36.0 °F 30.21 in Calm   3.0 mph 95% 0.00 in 114.00 W/m2
08:00 37.4 °F 36.1 °F 30.20 in Calm   1.0 mph 95% 0.00 in 132.00 W/m2
08:05 37.5 °F 36.2 °F 30.21 in Calm     95% 0.00 in 155.00 W/m2
08:10 37.7 °F 36.4 °F 30.21 in Calm     95% 0.00 in 176.00 W/m2
08:15 37.7 °F 36.4 °F 30.21 in Calm   1.0 mph 95% 0.00 in 193.00 W/m2
08:20 37.8 °F 36.5 °F 30.21 in Calm   2.0 mph 95% 0.00 in 214.00 W/m2
08:25 38.0 °F 36.7 °F 30.20 in North 2.0 mph 5.0 mph 95% 0.00 in 236.00 W/m2
08:30 38.2 °F 36.9 °F 30.20 in NNE 1.0 mph 5.0 mph 95% 0.00 in 258.00 W/m2
08:35 38.4 °F 37.1 °F 30.20 in Calm   4.0 mph 95% 0.00 in 278.00 W/m2
08:40 38.7 °F 37.4 °F 30.20 in NNE 2.0 mph 3.0 mph 95% 0.00 in 297.00 W/m2
08:45 39.0 °F 37.7 °F 30.21 in NNE 1.0 mph 3.0 mph 95% 0.00 in 316.00 W/m2
08:50 39.3 °F 38.0 °F 30.21 in NNE 1.0 mph 3.0 mph 95% 0.00 in 334.00 W/m2
08:55 39.4 °F 38.1 °F 30.21 in Calm     95% 0.00 in 350.00 W/m2
09:00 39.7 °F 38.4 °F 30.20 in Calm   3.0 mph 95% 0.00 in 367.00 W/m2
09:05 39.9 °F 38.6 °F 30.20 in Calm   2.0 mph 95% 0.00 in 381.00 W/m2
09:11 40.2 °F 38.9 °F 30.20 in Calm     95% 0.00 in 396.00 W/m2
09:16 40.4 °F 39.1 °F 30.20 in NNE 2.0 mph 2.0 mph 95% 0.00 in 408.00 W/m2
09:21 40.6 °F 39.3 °F 30.21 in Calm   2.0 mph 95% 0.00 in 422.00 W/m2
09:26 40.9 °F 39.6 °F 30.21 in Calm     95% 0.00 in 436.00 W/m2
09:31 41.1 °F 39.8 °F 30.21 in Calm     95% 0.00 in 450.00 W/m2
09:36 41.6 °F 40.3 °F 30.21 in Calm     95% 0.00 in 462.00 W/m2
09:41 42.2 °F 41.1 °F 30.21 in Calm     96% 0.00 in 475.00 W/m2
09:46 42.6 °F 41.5 °F 30.21 in Calm   2.0 mph 96% 0.00 in 487.00 W/m2
09:51 42.8 °F 41.7 °F 30.21 in Calm   3.0 mph 96% 0.00 in 497.00 W/m2
09:56 43.0 °F 41.9 °F 30.22 in Calm   3.0 mph 96% 0.00 in 508.00 W/m2
10:01 43.1 °F 42.0 °F 30.22 in Calm   4.0 mph 96% 0.00 in 517.00 W/m2
10:06 43.4 °F 42.1 °F 30.22 in NNE 2.0 mph 3.0 mph 95% 0.00 in 529.00 W/m2
10:11 43.4 °F 42.1 °F 30.23 in NNE 2.0 mph 4.0 mph 95% 0.00 in 538.00 W/m2
10:16 43.4 °F 42.1 °F 30.23 in NNE 1.0 mph 3.0 mph 95% 0.00 in 550.00 W/m2
10:21 43.3 °F 42.0 °F 30.23 in NNE 1.0 mph 2.0 mph 95% 0.00 in 557.00 W/m2
10:26 43.3 °F 42.0 °F 30.23 in NNE 1.0 mph 1.0 mph 95% 0.00 in 566.00 W/m2
10:31 43.6 °F 42.5 °F 30.23 in Calm   2.0 mph 96% 0.00 in 577.00 W/m2
10:36 44.2 °F 43.1 °F 30.23 in Calm   5.0 mph 96% 0.00 in 582.00 W/m2
10:41 44.3 °F 43.2 °F 30.23 in NNE 4.0 mph 4.0 mph 96% 0.00 in 591.00 W/m2
10:46 44.6 °F 43.3 °F 30.23 in NNE 3.0 mph 4.0 mph 95% 0.00 in 599.00 W/m2
10:51 45.1 °F 43.8 °F 30.23 in North 4.0 mph 6.0 mph 95% 0.00 in 605.00 W/m2
10:56 45.8 °F 44.2 °F 30.23 in Calm   1.0 mph 94% 0.00 in 613.00 W/m2
11:01 46.3 °F 44.7 °F 30.23 in North 3.0 mph 4.0 mph 94% 0.00 in 619.00 W/m2
11:06 46.6 °F 44.4 °F 30.23 in North 2.0 mph 4.0 mph 92% 0.00 in 626.00 W/m2
11:11 47.2 °F 45.3 °F 30.23 in North 6.0 mph 6.0 mph 93% 0.00 in 631.00 W/m2
11:16 47.2 °F 44.7 °F 30.23 in NNW 4.0 mph 4.0 mph 91% 0.00 in 638.00 W/m2
11:21 47.6 °F 44.8 °F 30.23 in NNW 6.0 mph 7.0 mph 90% 0.00 in 642.00 W/m2
11:26 47.7 °F 43.7 °F 30.23 in NNW 6.0 mph 7.0 mph 86% 0.00 in 645.00 W/m2
11:31 48.0 °F 42.8 °F 30.23 in Calm   1.0 mph 82% 0.00 in 650.00 W/m2
11:36 48.4 °F 43.8 °F 30.23 in NNW 2.0 mph 3.0 mph 84% 0.00 in 652.00 W/m2
11:41 48.7 °F 43.8 °F 30.23 in NNW 3.0 mph 3.0 mph 83% 0.00 in 656.00 W/m2
11:46 48.8 °F 43.2 °F 30.23 in Calm   2.0 mph 81% 0.00 in 657.00 W/m2
11:51 49.2 °F 43.0 °F 30.23 in NNW 1.0 mph 2.0 mph 79% 0.00 in 661.00 W/m2
11:56 49.6 °F 42.7 °F 30.22 in NW 2.0 mph 3.0 mph 77% 0.00 in 661.00 W/m2
12:01 49.8 °F 43.6 °F 30.22 in Calm     79% 0.00 in 661.00 W/m2
12:06 49.9 °F 43.7 °F 30.22 in NW 1.0 mph 2.0 mph 79% 0.00 in 664.00 W/m2
12:11 50.0 °F 43.4 °F 30.22 in Calm   2.0 mph 78% 0.00 in 663.00 W/m2
12:16 50.1 °F 42.5 °F 30.22 in WNW 1.0 mph 1.0 mph 75% 0.00 in 664.00 W/m2
12:21 50.4 °F 43.5 °F 30.22 in WNW 1.0 mph 2.0 mph 77% 0.00 in 664.00 W/m2
12:26 50.7 °F 43.1 °F 30.22 in WNW 3.0 mph 3.0 mph 75% 0.00 in 663.00 W/m2
12:32 51.1 °F 42.4 °F 30.22 in Calm   1.0 mph 72% 0.00 in 661.00 W/m2
12:37 51.4 °F 42.3 °F 30.22 in Calm     71% 0.00 in 659.00 W/m2
12:42 51.7 °F 44.4 °F 30.22 in NW 1.0 mph 2.0 mph 76% 0.00 in 657.00 W/m2
12:47 52.0 °F 45.0 °F 30.22 in Calm   1.0 mph 77% 0.00 in 654.00 W/m2
12:52 52.1 °F 44.4 °F 30.22 in ESE 6.0 mph 11.0 mph 75% 0.00 in 652.00 W/m2
12:57 52.3 °F 41.7 °F 30.22 in ESE 4.0 mph 5.0 mph 67% 0.00 in 649.00 W/m2
13:02 52.4 °F 41.0 °F 30.22 in ESE 5.0 mph 7.0 mph 65% 0.00 in 647.00 W/m2
13:07 52.5 °F 41.1 °F 30.22 in ESE 1.0 mph 12.0 mph 65% 0.00 in 642.00 W/m2
13:12 52.6 °F 40.4 °F 30.22 in Calm   5.0 mph 63% 0.00 in 636.00 W/m2
13:17 52.8 °F 42.5 °F 30.22 in ESE 4.0 mph 6.0 mph 68% 0.00 in 631.00 W/m2
13:22 52.9 °F 41.1 °F 30.22 in Calm   1.0 mph 64% 0.00 in 629.00 W/m2
13:27 53.0 °F 42.3 °F 30.22 in Calm   2.0 mph 67% 0.00 in 622.00 W/m2
13:32 53.2 °F 41.8 °F 30.22 in East 1.0 mph 3.0 mph 65% 0.00 in 615.00 W/m2
13:37 53.3 °F 41.8 °F 30.22 in Calm   2.0 mph 65% 0.00 in 612.00 W/m2
13:42 53.4 °F 41.9 °F 30.22 in SE 4.0 mph 11.0 mph 65% 0.00 in 601.00 W/m2
13:47 53.5 °F 41.2 °F 30.21 in Calm   2.0 mph 63% 0.00 in 594.00 W/m2
13:52 53.5 °F 41.2 °F 30.22 in NE 2.0 mph 4.0 mph 63% 0.00 in 587.00 W/m2
13:57 53.6 °F 43.7 °F 30.22 in East 7.0 mph 13.0 mph 69% 0.00 in 580.00 W/m2
14:02 53.6 °F 42.5 °F 30.22 in East 4.0 mph 5.0 mph 66% 0.00 in 570.00 W/m2
14:07 53.6 °F 37.8 °F 30.22 in ESE 1.0 mph 5.0 mph 55% 0.00 in 563.00 W/m2
14:12 53.8 °F 39.8 °F 30.22 in Calm   3.0 mph 59% 0.00 in 552.00 W/m2
14:17 53.9 °F 42.0 °F 30.22 in Calm   5.0 mph 64% 0.00 in 541.00 W/m2
14:22 53.8 °F 40.7 °F 30.22 in ENE 2.0 mph 7.0 mph 61% 0.00 in 531.00 W/m2
14:27 53.8 °F 40.7 °F 30.23 in SE 8.0 mph 13.0 mph 61% 0.00 in 519.00 W/m2
14:32 53.7 °F 39.3 °F 30.22 in ESE 1.0 mph 2.0 mph 58% 0.00 in 510.00 W/m2
14:37 53.7 °F 37.9 °F 30.22 in East 6.0 mph 12.0 mph 55% 0.00 in 499.00 W/m2
14:42 53.8 °F 38.5 °F 30.23 in Calm   1.0 mph 56% 0.00 in 485.00 W/m2
14:47 53.9 °F 39.9 °F 30.23 in ESE 1.0 mph 8.0 mph 59% 0.00 in 476.00 W/m2
14:52 53.9 °F 42.4 °F 30.23 in Calm   1.0 mph 65% 0.00 in 462.00 W/m2
14:57 53.7 °F 42.2 °F 30.23 in East 3.0 mph 5.0 mph 65% 0.00 in 450.00 W/m2
15:02 53.5 °F 40.8 °F 30.23 in East 8.0 mph 21.0 mph 62% 0.00 in 443.00 W/m2
15:07 53.3 °F 39.3 °F 30.23 in SE 1.0 mph 14.0 mph 59% 0.00 in 422.00 W/m2
15:12 53.4 °F 40.3 °F 30.23 in East 2.0 mph 7.0 mph 61% 0.00 in 408.00 W/m2
15:17 53.3 °F 40.2 °F 30.24 in East 11.0 mph 13.0 mph 61% 0.00 in 397.00 W/m2
15:22 53.2 °F 40.5 °F 30.24 in Calm   5.0 mph 62% 0.00 in 380.00 W/m2
15:27 53.0 °F 40.3 °F 30.24 in ENE 6.0 mph 12.0 mph 62% 0.00 in 369.00 W/m2
15:32 52.9 °F 39.4 °F 30.24 in East 1.0 mph 16.0 mph 60% 0.00 in 355.00 W/m2
15:37 52.8 °F 40.6 °F 30.24 in Calm   14.0 mph 63% 0.00 in 339.00 W/m2
15:42 52.7 °F 37.9 °F 30.24 in Calm   12.0 mph 57% 0.00 in 327.00 W/m2
15:47 52.7 °F 39.2 °F 30.24 in ENE 1.0 mph 23.0 mph 60% 0.00 in 309.00 W/m2
15:52 52.6 °F 37.4 °F 30.24 in East 5.0 mph 7.0 mph 56% 0.00 in 294.00 W/m2
15:57 52.5 °F 38.2 °F 30.24 in East 8.0 mph 15.0 mph 58% 0.00 in 278.00 W/m2
16:02 52.5 °F 37.7 °F 30.24 in NE 6.0 mph 18.0 mph 57% 0.00 in 265.00 W/m2
16:07 52.6 °F 38.3 °F 30.24 in Calm   15.0 mph 58% 0.00 in 246.00 W/m2
16:12 52.5 °F 39.0 °F 30.24 in Calm   22.0 mph 60% 0.00 in 241.00 W/m2
16:17 52.4 °F 38.5 °F 30.24 in SE 9.0 mph 22.0 mph 59% 0.00 in 213.00 W/m2
16:22 52.3 °F 38.4 °F 30.24 in East 4.0 mph 13.0 mph 59% 0.00 in 188.00 W/m2
16:27 52.2 °F 39.2 °F 30.24 in ESE 11.0 mph 14.0 mph 61% 0.00 in 171.00 W/m2
16:32 52.0 °F 38.1 °F 30.24 in East 7.0 mph 12.0 mph 59% 0.00 in 146.00 W/m2
16:37 51.9 °F 38.9 °F 30.23 in East 2.0 mph 13.0 mph 61% 0.00 in 127.00 W/m2
16:42 51.8 °F 39.2 °F 30.23 in ENE 2.0 mph 15.0 mph 62% 0.00 in 111.00 W/m2
16:47 51.7 °F 39.5 °F 30.23 in Calm   12.0 mph 63% 0.00 in 95.00 W/m2
16:52 51.5 °F 40.1 °F 30.23 in East 10.0 mph 16.0 mph 65% 0.00 in 76.00 W/m2
16:57 51.4 °F 38.4 °F 30.22 in East 13.0 mph 14.0 mph 61% 0.00 in 62.00 W/m2
17:02 51.3 °F 38.3 °F 30.22 in East 10.0 mph 17.0 mph 61% 0.00 in 47.00 W/m2
17:07 51.2 °F 39.0 °F 30.22 in East 8.0 mph 14.0 mph 63% 0.00 in 35.00 W/m2
17:12 51.0 °F 38.9 °F 30.22 in East 7.0 mph 18.0 mph 63% 0.00 in 26.00 W/m2
17:17 50.7 °F 40.2 °F 30.22 in East 19.0 mph 19.0 mph 67% 0.00 in 18.00 W/m2
17:23 50.3 °F 38.6 °F 30.22 in ENE 1.0 mph 11.0 mph 64% 0.00 in 14.00 W/m2
17:28 50.0 °F 37.9 °F 30.23 in Calm   1.0 mph 63% 0.00 in 12.00 W/m2
17:33 49.7 °F 39.2 °F 30.22 in Calm     67% 0.00 in 9.00 W/m2
17:38 49.3 °F 39.9 °F 30.23 in Calm   14.0 mph 70% 0.00 in 7.00 W/m2
17:43 48.9 °F 39.2 °F 30.23 in Calm     69% 0.00 in 0.00 W/m2
17:48 48.6 °F 38.9 °F 30.23 in Calm     69% 0.00 in 0.00 W/m2
17:53 48.3 °F 39.7 °F 30.24 in Calm     72% 0.00 in 0.00 W/m2
17:58 47.9 °F 39.3 °F 30.24 in Calm   1.0 mph 72% 0.00 in 0.00 W/m2
18:03 47.5 °F 38.6 °F 30.24 in Calm     71% 0.00 in 0.00 W/m2
18:08 47.2 °F 37.6 °F 30.24 in Calm     69% 0.00 in 0.00 W/m2
18:13 47.0 °F 36.2 °F 30.24 in NE 1.0 mph 1.0 mph 66% 0.00 in 0.00 W/m2
18:18 46.9 °F 36.9 °F 30.25 in Calm     68% 0.00 in 0.00 W/m2
18:23 46.9 °F 36.2 °F 30.25 in Calm   1.0 mph 66% 0.00 in 0.00 W/m2
18:28 46.8 °F 35.7 °F 30.25 in Calm     65% 0.00 in 0.00 W/m2
18:33 46.8 °F 36.0 °F 30.25 in Calm   1.0 mph 66% 0.00 in 0.00 W/m2
18:38 46.8 °F 35.7 °F 30.25 in Calm   1.0 mph 65% 0.00 in 0.00 W/m2
18:43 46.7 °F 36.7 °F 30.25 in Calm   1.0 mph 68% 0.00 in 0.00 W/m2
18:48 46.5 °F 36.5 °F 30.25 in Calm   1.0 mph 68% 0.00 in 0.00 W/m2
18:53 46.4 °F 36.8 °F 30.26 in Calm     69% 0.00 in 0.00 W/m2
18:58 46.2 °F 35.5 °F 30.26 in North 1.0 mph 1.0 mph 66% 0.00 in 0.00 W/m2
19:03 46.1 °F 36.9 °F 30.26 in Calm     70% 0.00 in 0.00 W/m2
19:08 46.0 °F 37.1 °F 30.26 in Calm     71% 0.00 in 0.00 W/m2
19:13 45.8 °F 36.2 °F 30.26 in Calm     69% 0.00 in 0.00 W/m2
19:18 45.7 °F 35.8 °F 30.26 in Calm     68% 0.00 in 0.00 W/m2
19:23 45.7 °F 37.2 °F 30.26 in Calm     72% 0.00 in 0.00 W/m2
19:28 45.5 °F 37.4 °F 30.25 in Calm     73% 0.00 in 0.00 W/m2
19:33 45.4 °F 36.9 °F 30.25 in Calm     72% 0.00 in 0.00 W/m2
19:38 45.2 °F 37.1 °F 30.25 in Calm   1.0 mph 73% 0.00 in 0.00 W/m2
19:43 45.2 °F 37.8 °F 30.26 in Calm   1.0 mph 75% 0.00 in 0.00 W/m2
19:48 45.0 °F 37.9 °F 30.26 in Calm   1.0 mph 76% 0.00 in 0.00 W/m2
19:53 44.6 °F 36.5 °F 30.26 in Calm     73% 0.00 in 0.00 W/m2
19:58 44.4 °F 36.7 °F 30.26 in Calm   1.0 mph 74% 0.00 in 0.00 W/m2
20:03 44.3 °F 36.5 °F 30.26 in Calm   1.0 mph 74% 0.00 in 0.00 W/m2
20:08 44.2 °F 37.1 °F 30.26 in Calm     76% 0.00 in 0.00 W/m2
20:13 44.1 °F 36.0 °F 30.26 in Calm     73% 0.00 in 0.00 W/m2
20:18 44.2 °F 36.1 °F 30.26 in Calm   1.0 mph 73% 0.00 in 0.00 W/m2
20:23 44.5 °F 37.8 °F 30.26 in Calm     77% 0.00 in 0.00 W/m2
20:28 44.3 °F 36.5 °F 30.27 in Calm     74% 0.00 in 0.00 W/m2
20:33 44.2 °F 36.8 °F 30.27 in Calm     75% 0.00 in 0.00 W/m2
20:38 44.0 °F 36.3 °F 30.27 in Calm     74% 0.00 in 0.00 W/m2
20:43 44.0 °F 35.9 °F 30.27 in Calm     73% 0.00 in 0.00 W/m2
20:49 44.0 °F 35.6 °F 30.28 in Calm   1.0 mph 72% 0.00 in 0.00 W/m2
20:54 44.0 °F 35.6 °F 30.28 in Calm   1.0 mph 72% 0.00 in 0.00 W/m2
20:59 44.0 °F 35.9 °F 30.28 in Calm   1.0 mph 73% 0.00 in 0.00 W/m2
21:04 43.8 °F 36.4 °F 30.28 in Calm   1.0 mph 75% 0.00 in 0.00 W/m2
21:09 43.6 °F 36.5 °F 30.27 in Calm   1.0 mph 76% 0.00 in 0.00 W/m2
21:14 43.6 °F 37.2 °F 30.27 in Calm   1.0 mph 78% 0.00 in 0.00 W/m2
21:19 43.5 °F 37.1 °F 30.27 in Calm   1.0 mph 78% 0.00 in 0.00 W/m2
21:24 43.4 °F 36.7 °F 30.28 in Calm   1.0 mph 77% 0.00 in 0.00 W/m2
21:29 43.3 °F 35.9 °F 30.27 in ESE 2.0 mph 14.0 mph 75% 0.00 in 0.00 W/m2
21:34 43.4 °F 35.3 °F 30.28 in SE 1.0 mph 1.0 mph 73% 0.00 in 0.00 W/m2
21:39 43.6 °F 36.2 °F 30.28 in SE 12.0 mph 16.0 mph 75% 0.00 in 0.00 W/m2
21:44 43.7 °F 36.3 °F 30.28 in SE 10.0 mph 17.0 mph 75% 0.00 in 0.00 W/m2
21:49 43.7 °F 36.6 °F 30.28 in Calm   9.0 mph 76% 0.00 in 0.00 W/m2
21:54 43.8 °F 36.4 °F 30.28 in ESE 1.0 mph 19.0 mph 75% 0.00 in 0.00 W/m2
21:59 43.9 °F 36.2 °F 30.29 in Calm   1.0 mph 74% 0.00 in 0.00 W/m2
22:04 44.0 °F 36.9 °F 30.28 in Calm   7.0 mph 76% 0.00 in 0.00 W/m2
22:09 44.0 °F 37.6 °F 30.28 in Calm   11.0 mph 78% 0.00 in 0.00 W/m2
22:14 43.9 °F 36.8 °F 30.28 in Calm   12.0 mph 76% 0.00 in 0.00 W/m2
22:19 43.8 °F 36.7 °F 30.27 in ESE 8.0 mph 12.0 mph 76% 0.00 in 0.00 W/m2
22:24 43.9 °F 36.5 °F 30.27 in East 17.0 mph 21.0 mph 75% 0.00 in 0.00 W/m2
22:29 44.1 °F 35.7 °F 30.27 in ENE 5.0 mph 23.0 mph 72% 0.00 in 0.00 W/m2
22:34 44.6 °F 37.5 °F 30.27 in Calm   23.0 mph 76% 0.00 in 0.00 W/m2
22:39 44.9 °F 36.1 °F 30.27 in East 5.0 mph 24.0 mph 71% 0.00 in 0.00 W/m2
22:45 45.2 °F 35.7 °F 30.27 in East 17.0 mph 21.0 mph 69% 0.00 in 0.00 W/m2
22:50 45.5 °F 35.2 °F 30.28 in Calm   11.0 mph 67% 0.00 in 0.00 W/m2
22:55 45.7 °F 36.5 °F 30.28 in ESE 8.0 mph 14.0 mph 70% 0.00 in 0.00 W/m2
23:00 45.8 °F 37.0 °F 30.29 in Calm   16.0 mph 71% 0.00 in 0.00 W/m2
23:05 45.7 °F 37.2 °F 30.29 in East 11.0 mph 11.0 mph 72% 0.00 in 0.00 W/m2
23:10 45.6 °F 36.8 °F 30.29 in ESE 1.0 mph 12.0 mph 71% 0.00 in 0.00 W/m2
23:15 45.4 °F 36.6 °F 30.29 in Calm   16.0 mph 71% 0.00 in 0.00 W/m2
23:20 45.2 °F 36.0 °F 30.29 in ESE 8.0 mph 19.0 mph 70% 0.00 in 0.00 W/m2
23:25 45.1 °F 35.5 °F 30.29 in East 6.0 mph 15.0 mph 69% 0.00 in 0.00 W/m2
23:30 45.1 °F 36.3 °F 30.28 in East 8.0 mph 17.0 mph 71% 0.00 in 0.00 W/m2
23:35 45.0 °F 35.8 °F 30.28 in ENE 15.0 mph 22.0 mph 70% 0.00 in 0.00 W/m2
23:40 44.9 °F 36.1 °F 30.28 in East 9.0 mph 16.0 mph 71% 0.00 in 0.00 W/m2
23:45 44.7 °F 35.5 °F 30.28 in Calm   13.0 mph 70% 0.00 in 0.00 W/m2
23:50 44.6 °F 35.1 °F 30.28 in Calm   15.0 mph 69% 0.00 in 0.00 W/m2
23:55 44.6 °F 35.1 °F 30.28 in ENE 2.0 mph 20.0 mph 69% 0.00 in 0.00 W/m2
Foresthill Weather
 WU-history PHP script courtesy of   Juneau County Weather.
powered by Cumulus v1.9.3 (1059)
Ambient Weather VWS v14.00
Top Contact Website Map Copyright © 2007 - 2018 Foresthillweather.com Never base important decisions on this or any weather information obtained from the Internet